createdAt,value
2022-11-24T00:00:09.904Z,998.79
2022-11-24T00:01:09.879Z,998.81
2022-11-24T00:02:11.231Z,998.82
2022-11-24T00:03:10.021Z,998.84
2022-11-24T00:04:09.844Z,998.83
2022-11-24T00:05:09.803Z,998.87
2022-11-24T00:06:09.852Z,998.87
2022-11-24T00:07:09.821Z,998.84
2022-11-24T00:08:10.027Z,998.85
2022-11-24T00:09:09.805Z,998.83
2022-11-24T00:10:09.786Z,998.84
2022-11-24T00:11:09.777Z,998.79
2022-11-24T00:12:09.759Z,998.77
2022-11-24T00:13:11.197Z,998.84
2022-11-24T00:14:09.688Z,998.82
2022-11-24T00:15:09.756Z,998.82
2022-11-24T00:16:09.671Z,998.80
2022-11-24T00:17:09.728Z,998.78
2022-11-24T00:18:09.643Z,998.81
2022-11-24T00:19:10.460Z,998.86
2022-11-24T00:20:09.637Z,998.81
2022-11-24T00:21:09.797Z,998.86
2022-11-24T00:22:09.680Z,998.88
2022-11-24T00:23:10.587Z,998.81
2022-11-24T00:24:09.573Z,998.82
2022-11-24T00:25:09.613Z,998.89
2022-11-24T00:26:09.595Z,998.92
2022-11-24T00:27:09.616Z,998.93
2022-11-24T00:28:09.530Z,998.98
2022-11-24T00:29:09.508Z,998.99
2022-11-24T00:30:09.488Z,999.00
2022-11-24T00:31:13.910Z,999.01
2022-11-24T00:32:10.566Z,999.05
2022-11-24T00:33:09.501Z,998.99
2022-11-24T00:34:09.472Z,999.03
2022-11-24T00:35:09.578Z,999.04
2022-11-24T00:36:09.445Z,999.02
2022-11-24T00:37:09.421Z,999.01
2022-11-24T00:38:09.537Z,999.04
2022-11-24T00:39:09.702Z,999.02
2022-11-24T00:40:09.357Z,999.03
2022-11-24T00:41:09.342Z,999.05
2022-11-24T00:42:09.485Z,999.10
2022-11-24T00:43:09.392Z,999.09
2022-11-24T00:44:09.371Z,999.10
2022-11-24T00:45:13.939Z,999.14
2022-11-24T00:46:10.401Z,999.13
2022-11-24T00:47:09.444Z,999.10
2022-11-24T00:48:09.772Z,999.14
2022-11-24T00:49:10.140Z,999.15
2022-11-24T00:50:10.041Z,999.12
2022-11-24T00:51:10.661Z,999.10
2022-11-24T00:52:09.356Z,999.15
2022-11-24T00:53:09.202Z,999.18
2022-11-24T00:54:09.220Z,999.21
2022-11-24T00:55:09.206Z,999.23
2022-11-24T00:56:09.194Z,999.23
2022-11-24T00:57:09.143Z,999.18
2022-11-24T00:58:09.122Z,999.23
2022-11-24T00:59:09.134Z,999.17
2022-11-24T01:00:09.131Z,999.17
2022-11-24T01:01:10.273Z,999.22
2022-11-24T01:02:09.149Z,999.18
2022-11-24T01:03:09.177Z,999.17
2022-11-24T01:04:09.092Z,999.20
2022-11-24T01:05:09.131Z,999.20
2022-11-24T01:06:09.050Z,999.23
2022-11-24T01:07:09.100Z,999.20
2022-11-24T01:08:09.011Z,999.25
2022-11-24T01:09:09.065Z,999.23
2022-11-24T01:10:09.451Z,999.25
2022-11-24T01:11:09.012Z,999.27
2022-11-24T01:12:08.952Z,999.26
2022-11-24T01:13:08.948Z,999.25
2022-11-24T01:14:09.008Z,999.26
2022-11-24T01:15:08.924Z,999.27
2022-11-24T01:16:08.934Z,999.29
2022-11-24T01:17:09.113Z,999.30
2022-11-24T01:18:08.873Z,999.33
2022-11-24T01:19:08.988Z,999.33
2022-11-24T01:20:08.842Z,999.31
2022-11-24T01:21:10.408Z,999.37
2022-11-24T01:22:08.833Z,999.33
2022-11-24T01:23:09.942Z,999.32
2022-11-24T01:24:08.808Z,999.36
2022-11-24T01:25:08.834Z,999.38
2022-11-24T01:26:08.773Z,999.37
2022-11-24T01:27:08.796Z,999.42
2022-11-24T01:28:08.737Z,999.40
2022-11-24T01:29:10.187Z,999.43
2022-11-24T01:30:09.695Z,999.45
2022-11-24T01:31:08.741Z,999.45
2022-11-24T01:32:08.967Z,999.45
2022-11-24T01:33:08.694Z,999.46
2022-11-24T01:34:08.687Z,999.46
2022-11-24T01:35:08.670Z,999.43
2022-11-24T01:36:08.716Z,999.46
2022-11-24T01:37:08.655Z,999.47
2022-11-24T01:38:08.635Z,999.45
2022-11-24T01:39:08.618Z,999.47
2022-11-24T01:40:08.615Z,999.45
2022-11-24T01:41:08.599Z,999.45
2022-11-24T01:42:08.648Z,999.47
2022-11-24T01:43:08.533Z,999.44
2022-11-24T01:44:08.557Z,999.44
2022-11-24T01:45:08.537Z,999.46
2022-11-24T01:46:08.552Z,999.48
2022-11-24T01:47:08.510Z,999.49
2022-11-24T01:48:08.576Z,999.48
2022-11-24T01:49:08.650Z,999.48
2022-11-24T01:50:08.851Z,999.46
2022-11-24T01:51:08.937Z,999.52
2022-11-24T01:52:08.528Z,999.52
2022-11-24T01:53:08.450Z,999.55
2022-11-24T01:54:08.410Z,999.49
2022-11-24T01:55:09.301Z,999.58
2022-11-24T01:56:08.984Z,999.57
2022-11-24T01:57:08.362Z,999.61
2022-11-24T01:58:08.356Z,999.59
2022-11-24T01:59:08.386Z,999.56
2022-11-24T02:00:08.342Z,999.56
2022-11-24T02:01:08.416Z,999.55
2022-11-24T02:02:08.735Z,999.58
2022-11-24T02:03:08.379Z,999.58
2022-11-24T02:04:08.295Z,999.61
2022-11-24T02:05:08.373Z,999.59
2022-11-24T02:06:08.291Z,999.58
2022-11-24T02:07:08.315Z,999.59
2022-11-24T02:08:08.318Z,999.58
2022-11-24T02:09:08.377Z,999.60
2022-11-24T02:10:08.209Z,999.61
2022-11-24T02:11:08.233Z,999.65
2022-11-24T02:12:08.205Z,999.73
2022-11-24T02:13:08.164Z,999.70
2022-11-24T02:14:08.223Z,999.69
2022-11-24T02:15:08.141Z,999.72
2022-11-24T02:16:08.190Z,999.71
2022-11-24T02:17:08.285Z,999.75
2022-11-24T02:18:08.141Z,999.71
2022-11-24T02:19:08.141Z,999.69
2022-11-24T02:20:08.107Z,999.69
2022-11-24T02:21:08.071Z,999.75
2022-11-24T02:22:08.073Z,999.75
2022-11-24T02:23:08.096Z,999.72
2022-11-24T02:24:08.032Z,999.72
2022-11-24T02:25:08.038Z,999.73
2022-11-24T02:26:08.035Z,999.72
2022-11-24T02:27:08.040Z,999.72
2022-11-24T02:28:07.992Z,999.72
2022-11-24T02:29:07.950Z,999.74
2022-11-24T02:30:07.984Z,999.67
2022-11-24T02:31:08.187Z,999.67
2022-11-24T02:32:07.939Z,999.69
2022-11-24T02:33:07.945Z,999.66
2022-11-24T02:34:08.043Z,999.68
2022-11-24T02:35:07.916Z,999.75
2022-11-24T02:36:07.885Z,999.71
2022-11-24T02:37:07.851Z,999.77
2022-11-24T02:38:07.948Z,999.74
2022-11-24T02:39:07.850Z,999.77
2022-11-24T02:40:07.801Z,999.80
2022-11-24T02:41:07.794Z,999.83
2022-11-24T02:42:07.872Z,999.83
2022-11-24T02:43:07.808Z,999.83
2022-11-24T02:44:07.754Z,999.86
2022-11-24T02:45:07.741Z,999.86
2022-11-24T02:46:07.769Z,999.86
2022-11-24T02:47:07.742Z,999.83
2022-11-24T02:48:07.714Z,999.88
2022-11-24T02:49:07.688Z,999.87
2022-11-24T02:50:07.696Z,999.91
2022-11-24T02:51:08.664Z,999.87
2022-11-24T02:52:08.414Z,999.90
2022-11-24T02:53:08.485Z,999.90
2022-11-24T02:54:07.634Z,999.86
2022-11-24T02:55:07.653Z,999.89
2022-11-24T02:56:07.633Z,999.92
2022-11-24T02:57:07.589Z,999.90
2022-11-24T02:58:07.668Z,999.89
2022-11-24T02:59:07.602Z,999.88
2022-11-24T03:00:07.557Z,999.87
2022-11-24T03:01:07.628Z,999.90
2022-11-24T03:02:07.545Z,999.87
2022-11-24T03:03:07.627Z,999.86
2022-11-24T03:04:07.547Z,999.89
2022-11-24T03:05:07.496Z,999.88
2022-11-24T03:06:07.504Z,999.89
2022-11-24T03:07:07.522Z,999.89
2022-11-24T03:08:07.446Z,999.91
2022-11-24T03:09:07.557Z,999.92
2022-11-24T03:10:07.492Z,999.90
2022-11-24T03:11:08.278Z,999.97
2022-11-24T03:12:08.187Z,999.94
2022-11-24T03:13:07.374Z,999.94
2022-11-24T03:14:07.396Z,999.96
2022-11-24T03:15:07.467Z,999.96
2022-11-24T03:16:07.487Z,1000.00
2022-11-24T03:17:07.335Z,999.97
2022-11-24T03:18:07.322Z,1000.00
2022-11-24T03:19:07.327Z,1000.01
2022-11-24T03:20:07.500Z,1000.00
2022-11-24T03:21:08.289Z,1000.05
2022-11-24T03:22:07.307Z,1000.05
2022-11-24T03:23:07.245Z,1000.06
2022-11-24T03:24:07.429Z,1000.07
2022-11-24T03:25:07.237Z,1000.06
2022-11-24T03:26:07.219Z,1000.11
2022-11-24T03:27:07.197Z,1000.09
2022-11-24T03:28:07.193Z,1000.09
2022-11-24T03:29:07.248Z,1000.07
2022-11-24T03:30:07.200Z,1000.04
2022-11-24T03:31:07.259Z,1000.10
2022-11-24T03:32:07.161Z,1000.10
2022-11-24T03:33:07.164Z,1000.06
2022-11-24T03:34:07.151Z,1000.10
2022-11-24T03:35:07.189Z,1000.09
2022-11-24T03:36:07.090Z,1000.10
2022-11-24T03:37:07.098Z,1000.09
2022-11-24T03:38:07.083Z,1000.12
2022-11-24T03:39:07.049Z,1000.15
2022-11-24T03:40:07.127Z,1000.12
2022-11-24T03:41:07.051Z,1000.17
2022-11-24T03:42:07.001Z,1000.16
2022-11-24T03:43:07.094Z,1000.20
2022-11-24T03:44:07.030Z,1000.21
2022-11-24T03:46:08.005Z,1000.20
2022-11-24T03:47:06.962Z,1000.20
2022-11-24T03:48:06.918Z,1000.20
2022-11-24T03:49:06.911Z,1000.27
2022-11-24T03:50:06.975Z,1000.25
2022-11-24T03:51:06.962Z,1000.31
2022-11-24T03:52:08.343Z,1000.28
2022-11-24T03:53:06.920Z,1000.27
2022-11-24T03:54:06.854Z,1000.31
2022-11-24T03:55:06.836Z,1000.29
2022-11-24T03:56:06.825Z,1000.36
2022-11-24T03:57:06.833Z,1000.32
2022-11-24T03:58:06.845Z,1000.36
2022-11-24T03:59:06.921Z,1000.37
2022-11-24T04:00:06.878Z,1000.39
2022-11-24T04:01:06.794Z,1000.38
2022-11-24T04:02:08.067Z,1000.42
2022-11-24T04:03:07.928Z,1000.40
2022-11-24T04:04:06.829Z,1000.41
2022-11-24T04:05:06.748Z,1000.40
2022-11-24T04:06:06.723Z,1000.39
2022-11-24T04:07:07.152Z,1000.42
2022-11-24T04:08:06.732Z,1000.42
2022-11-24T04:09:06.760Z,1000.44
2022-11-24T04:10:06.660Z,1000.44
2022-11-24T04:11:06.687Z,1000.43
2022-11-24T04:12:07.658Z,1000.45
2022-11-24T04:13:06.706Z,1000.44
2022-11-24T04:14:11.987Z,1000.45
2022-11-24T04:15:07.634Z,1000.47
2022-11-24T04:16:06.631Z,1000.47
2022-11-24T04:17:06.634Z,1000.50
2022-11-24T04:18:06.567Z,1000.49
2022-11-24T04:19:06.589Z,1000.57
2022-11-24T04:20:06.542Z,1000.54
2022-11-24T04:21:06.528Z,1000.53
2022-11-24T04:22:06.564Z,1000.53
2022-11-24T04:23:06.592Z,1000.57
2022-11-24T04:24:06.504Z,1000.56
2022-11-24T04:25:06.478Z,1000.55
2022-11-24T04:26:06.519Z,1000.55
2022-11-24T04:27:06.592Z,1000.58
2022-11-24T04:28:07.546Z,1000.56
2022-11-24T04:29:06.494Z,1000.58
2022-11-24T04:30:06.396Z,1000.56
2022-11-24T04:31:06.547Z,1000.57
2022-11-24T04:32:07.006Z,1000.63
2022-11-24T04:33:06.364Z,1000.61
2022-11-24T04:34:06.395Z,1000.64
2022-11-24T04:35:06.756Z,1000.66
2022-11-24T04:36:06.417Z,1000.65
2022-11-24T04:37:06.320Z,1000.62
2022-11-24T04:38:07.100Z,1000.67
2022-11-24T04:39:19.865Z,1000.69
2022-11-24T04:40:07.280Z,1000.64
2022-11-24T04:41:06.503Z,1000.66
2022-11-24T04:42:06.271Z,1000.68
2022-11-24T04:43:06.218Z,1000.70
2022-11-24T04:44:07.006Z,1000.70
2022-11-24T04:45:06.208Z,1000.69
2022-11-24T04:46:06.278Z,1000.70
2022-11-24T04:47:06.233Z,1000.72
2022-11-24T04:48:06.179Z,1000.71
2022-11-24T04:49:06.258Z,1000.69
2022-11-24T04:50:06.322Z,1000.72
2022-11-24T04:51:06.142Z,1000.76
2022-11-24T04:52:06.122Z,1000.81
2022-11-24T04:53:06.183Z,1000.81
2022-11-24T04:54:06.990Z,1000.80
2022-11-24T04:55:06.069Z,1000.76
2022-11-24T04:56:07.013Z,1000.82
2022-11-24T04:57:06.050Z,1000.86
2022-11-24T04:58:06.022Z,1000.90
2022-11-24T04:59:08.366Z,1000.85
2022-11-24T05:00:06.011Z,1000.91
2022-11-24T05:01:06.312Z,1000.93
2022-11-24T05:02:06.053Z,1000.93
2022-11-24T05:03:06.013Z,1000.92
2022-11-24T05:04:06.397Z,1000.93
2022-11-24T05:05:05.929Z,1000.93
2022-11-24T05:06:05.991Z,1000.92
2022-11-24T05:07:06.022Z,1000.92
2022-11-24T05:08:05.885Z,1000.97
2022-11-24T05:09:05.869Z,1000.98
2022-11-24T05:10:05.904Z,1000.97
2022-11-24T05:11:05.879Z,1001.00
2022-11-24T05:12:05.897Z,1001.05
2022-11-24T05:13:05.815Z,1001.04
2022-11-24T05:14:05.818Z,1001.07
2022-11-24T05:15:05.955Z,1001.05
2022-11-24T05:16:05.844Z,1001.08
2022-11-24T05:17:06.348Z,1001.04
2022-11-24T05:18:06.824Z,1001.06
2022-11-24T05:19:09.327Z,1001.10
2022-11-24T05:20:05.816Z,1001.07
2022-11-24T05:21:05.842Z,1001.07
2022-11-24T05:22:21.028Z,1001.10
2022-11-24T05:23:05.848Z,1001.08
2022-11-24T05:24:05.744Z,1001.13
2022-11-24T05:25:05.979Z,1001.13
2022-11-24T05:26:05.999Z,1001.18
2022-11-24T05:27:05.669Z,1001.19
2022-11-24T05:28:05.739Z,1001.18
2022-11-24T05:29:06.792Z,1001.20
2022-11-24T05:30:06.053Z,1001.17
2022-11-24T05:31:05.761Z,1001.18
2022-11-24T05:32:06.596Z,1001.21
2022-11-24T05:33:05.737Z,1001.23
2022-11-24T05:34:06.734Z,1001.24
2022-11-24T05:35:05.833Z,1001.24
2022-11-24T05:36:05.558Z,1001.18
2022-11-24T05:37:06.551Z,1001.24
2022-11-24T05:38:05.543Z,1001.23
2022-11-24T05:39:06.430Z,1001.24
2022-11-24T05:40:05.529Z,1001.24
2022-11-24T05:41:05.455Z,1001.25
2022-11-24T05:42:06.580Z,1001.31
2022-11-24T05:43:05.445Z,1001.31
2022-11-24T05:44:06.399Z,1001.33
2022-11-24T05:45:06.390Z,1001.33
2022-11-24T05:46:05.424Z,1001.36
2022-11-24T05:47:05.626Z,1001.37
2022-11-24T05:48:05.635Z,1001.38
2022-11-24T05:49:05.358Z,1001.38
2022-11-24T05:50:05.711Z,1001.39
2022-11-24T05:51:09.245Z,1001.38
2022-11-24T05:52:05.751Z,1001.38
2022-11-24T05:53:05.831Z,1001.39
2022-11-24T05:54:06.429Z,1001.38
2022-11-24T05:55:05.729Z,1001.37
2022-11-24T05:56:06.221Z,1001.37
2022-11-24T05:57:05.342Z,1001.37
2022-11-24T05:58:05.369Z,1001.36
2022-11-24T05:59:09.607Z,1001.31
2022-11-24T06:00:05.211Z,1001.36
2022-11-24T06:01:05.553Z,1001.40
2022-11-24T06:02:06.291Z,1001.43
2022-11-24T06:03:05.955Z,1001.45
2022-11-24T06:04:05.200Z,1001.45
2022-11-24T06:05:05.900Z,1001.47
2022-11-24T06:06:05.271Z,1001.48
2022-11-24T06:07:06.095Z,1001.48
2022-11-24T06:08:05.891Z,1001.48
2022-11-24T06:09:05.570Z,1001.45
2022-11-24T06:10:05.097Z,1001.45
2022-11-24T06:11:05.052Z,1001.44
2022-11-24T06:12:05.090Z,1001.46
2022-11-24T06:13:06.211Z,1001.42
2022-11-24T06:14:10.870Z,1001.41
2022-11-24T06:15:06.091Z,1001.43
2022-11-24T06:16:05.070Z,1001.42
2022-11-24T06:17:05.770Z,1001.43
2022-11-24T06:18:04.991Z,1001.41
2022-11-24T06:19:13.753Z,1001.47
2022-11-24T06:20:05.286Z,1001.46
2022-11-24T06:21:12.304Z,1001.56
2022-11-24T06:22:05.966Z,1001.55
2022-11-24T06:23:05.107Z,1001.62
2022-11-24T06:24:04.922Z,1001.63
2022-11-24T06:25:05.202Z,1001.63
2022-11-24T06:26:04.866Z,1001.61
2022-11-24T06:27:04.937Z,1001.64
2022-11-24T06:28:04.857Z,1001.65
2022-11-24T06:29:04.833Z,1001.69
2022-11-24T06:30:04.853Z,1001.72
2022-11-24T06:31:04.863Z,1001.68
2022-11-24T06:32:05.226Z,1001.74
2022-11-24T06:33:04.906Z,1001.74
2022-11-24T06:34:04.942Z,1001.71
2022-11-24T06:35:04.765Z,1001.74
2022-11-24T06:36:04.824Z,1001.79
2022-11-24T06:37:04.768Z,1001.78
2022-11-24T06:38:05.844Z,1001.79
2022-11-24T06:39:05.323Z,1001.80
2022-11-24T06:40:04.724Z,1001.78
2022-11-24T06:41:04.676Z,1001.79
2022-11-24T06:42:04.657Z,1001.83
2022-11-24T06:43:04.656Z,1001.84
2022-11-24T06:44:04.648Z,1001.80
2022-11-24T06:45:08.725Z,1001.83
2022-11-24T06:46:04.703Z,1001.86
2022-11-24T06:47:04.628Z,1001.87
2022-11-24T06:48:05.359Z,1001.84
2022-11-24T06:49:04.987Z,1001.86
2022-11-24T06:50:04.555Z,1001.87
2022-11-24T06:51:04.606Z,1001.83
2022-11-24T06:52:05.486Z,1001.86
2022-11-24T06:53:04.527Z,1001.90
2022-11-24T06:54:04.558Z,1001.87
2022-11-24T06:55:04.694Z,1001.89
2022-11-24T06:56:04.579Z,1001.88
2022-11-24T06:57:04.503Z,1001.92
2022-11-24T06:58:05.423Z,1001.93
2022-11-24T06:59:04.466Z,1001.93
2022-11-24T07:00:04.538Z,1001.94
2022-11-24T07:01:04.962Z,1001.94
2022-11-24T07:02:05.849Z,1001.99
2022-11-24T07:03:04.475Z,1001.99
2022-11-24T07:04:04.380Z,1001.99
2022-11-24T07:05:04.391Z,1001.97
2022-11-24T07:06:04.376Z,1002.01
2022-11-24T07:07:05.581Z,1002.02
2022-11-24T07:08:04.330Z,1002.01
2022-11-24T07:09:04.354Z,1002.03
2022-11-24T07:10:04.473Z,1002.07
2022-11-24T07:11:04.292Z,1002.03
2022-11-24T07:12:04.306Z,1002.03
2022-11-24T07:13:05.539Z,1002.04
2022-11-24T07:14:04.468Z,1002.11
2022-11-24T07:15:04.283Z,1002.08
2022-11-24T07:16:04.354Z,1002.12
2022-11-24T07:17:04.767Z,1002.14
2022-11-24T07:18:05.673Z,1002.15
2022-11-24T07:19:04.203Z,1002.12
2022-11-24T07:20:04.149Z,1002.12
2022-11-24T07:21:04.619Z,1002.16
2022-11-24T07:22:04.220Z,1002.15
2022-11-24T07:23:04.182Z,1002.17
2022-11-24T07:24:04.113Z,1002.12
2022-11-24T07:25:04.104Z,1002.17
2022-11-24T07:26:06.933Z,1002.25
2022-11-24T07:27:04.790Z,1002.16
2022-11-24T07:28:04.085Z,1002.25
2022-11-24T07:29:04.043Z,1002.16
2022-11-24T07:30:04.070Z,1002.20
2022-11-24T07:31:04.105Z,1002.14
2022-11-24T07:32:05.855Z,1002.22
2022-11-24T07:33:04.311Z,1002.22
2022-11-24T07:34:04.906Z,1002.27
2022-11-24T07:35:03.969Z,1002.27
2022-11-24T07:36:04.851Z,1002.30
2022-11-24T07:37:03.965Z,1002.27
2022-11-24T07:38:04.184Z,1002.30
2022-11-24T07:39:05.074Z,1002.33
2022-11-24T07:40:04.085Z,1002.36
2022-11-24T07:41:03.894Z,1002.37
2022-11-24T07:42:03.873Z,1002.43
2022-11-24T07:43:03.919Z,1002.43
2022-11-24T07:44:03.903Z,1002.44
2022-11-24T07:45:03.889Z,1002.45
2022-11-24T07:46:03.920Z,1002.52
2022-11-24T07:47:03.825Z,1002.49
2022-11-24T07:48:03.795Z,1002.52
2022-11-24T07:49:03.936Z,1002.50
2022-11-24T07:50:03.802Z,1002.53
2022-11-24T07:51:03.916Z,1002.49
2022-11-24T07:52:04.047Z,1002.53
2022-11-24T07:53:03.787Z,1002.52
2022-11-24T07:54:03.758Z,1002.53
2022-11-24T07:55:03.726Z,1002.55
2022-11-24T07:56:03.690Z,1002.62
2022-11-24T07:57:03.748Z,1002.60
2022-11-24T07:58:03.684Z,1002.62
2022-11-24T07:59:03.797Z,1002.69
2022-11-24T08:00:03.800Z,1002.68
2022-11-24T08:01:03.817Z,1002.71
2022-11-24T08:02:03.687Z,1002.70
2022-11-24T08:03:03.757Z,1002.74
2022-11-24T08:04:04.820Z,1002.77
2022-11-24T08:05:03.610Z,1002.82
2022-11-24T08:07:04.609Z,1002.81
2022-11-24T08:08:03.528Z,1002.82
2022-11-24T08:09:03.523Z,1002.80
2022-11-24T08:10:03.498Z,1002.83
2022-11-24T08:11:03.480Z,1002.82
2022-11-24T08:12:03.479Z,1002.86
2022-11-24T08:13:03.511Z,1002.89
2022-11-24T08:14:03.469Z,1002.87
2022-11-24T08:15:09.447Z,1002.91
2022-11-24T08:16:04.437Z,1002.90
2022-11-24T08:17:03.605Z,1002.93
2022-11-24T08:18:03.438Z,1002.93
2022-11-24T08:19:03.540Z,1002.95
2022-11-24T08:20:03.417Z,1002.96
2022-11-24T08:21:03.381Z,1002.92
2022-11-24T08:22:25.987Z,1002.95
2022-11-24T08:23:03.353Z,1002.92
2022-11-24T08:24:03.362Z,1002.88
2022-11-24T08:25:04.189Z,1002.89
2022-11-24T08:26:03.314Z,1002.92
2022-11-24T08:27:03.496Z,1002.93
2022-11-24T08:28:03.292Z,1002.93
2022-11-24T08:29:03.308Z,1002.94
2022-11-24T08:30:03.332Z,1002.93
2022-11-24T08:31:03.271Z,1002.94
2022-11-24T08:32:03.398Z,1002.93
2022-11-24T08:33:03.242Z,1002.96
2022-11-24T08:34:03.253Z,1002.95
2022-11-24T08:35:14.941Z,1003.02
2022-11-24T08:36:04.176Z,1003.00
2022-11-24T08:37:03.280Z,1003.03
2022-11-24T08:38:04.770Z,1003.07
2022-11-24T08:39:03.142Z,1003.10
2022-11-24T08:40:03.212Z,1003.11
2022-11-24T08:41:03.103Z,1003.08
2022-11-24T08:42:03.256Z,1003.12
2022-11-24T08:43:03.543Z,1003.16
2022-11-24T08:44:03.083Z,1003.18
2022-11-24T08:45:18.838Z,1003.20
2022-11-24T08:46:04.059Z,1003.16
2022-11-24T08:47:03.030Z,1003.18
2022-11-24T08:48:03.147Z,1003.23
2022-11-24T08:49:03.027Z,1003.21
2022-11-24T08:50:03.046Z,1003.21
2022-11-24T08:51:03.036Z,1003.24
2022-11-24T08:52:02.981Z,1003.26
2022-11-24T08:53:02.962Z,1003.26
2022-11-24T08:54:03.029Z,1003.27
2022-11-24T08:55:03.922Z,1003.30
2022-11-24T08:56:02.973Z,1003.30
2022-11-24T08:57:02.915Z,1003.30
2022-11-24T08:58:02.946Z,1003.31
2022-11-24T08:59:02.976Z,1003.34
2022-11-24T09:00:02.850Z,1003.31
2022-11-24T09:01:02.920Z,1003.32
2022-11-24T09:02:02.998Z,1003.30
2022-11-24T09:03:02.848Z,1003.31
2022-11-24T09:04:02.959Z,1003.32
2022-11-24T09:05:02.798Z,1003.34
2022-11-24T09:06:02.979Z,1003.33
2022-11-24T09:07:02.788Z,1003.34
2022-11-24T09:08:02.858Z,1003.37
2022-11-24T09:09:02.848Z,1003.38
2022-11-24T09:10:02.733Z,1003.39
2022-11-24T09:11:02.695Z,1003.41
2022-11-24T09:12:02.726Z,1003.39
2022-11-24T09:13:03.232Z,1003.40
2022-11-24T09:14:02.722Z,1003.50
2022-11-24T09:15:02.721Z,1003.47
2022-11-24T09:16:02.688Z,1003.46
2022-11-24T09:17:02.758Z,1003.47
2022-11-24T09:18:03.767Z,1003.48
2022-11-24T09:19:02.671Z,1003.45
2022-11-24T09:20:03.570Z,1003.48
2022-11-24T09:21:03.048Z,1003.49
2022-11-24T09:22:02.707Z,1003.56
2022-11-24T09:23:02.593Z,1003.51
2022-11-24T09:24:02.602Z,1003.55
2022-11-24T09:25:02.562Z,1003.59
2022-11-24T09:26:02.722Z,1003.60
2022-11-24T09:27:02.529Z,1003.62
2022-11-24T09:28:02.510Z,1003.61
2022-11-24T09:29:02.621Z,1003.62
2022-11-24T09:30:02.507Z,1003.62
2022-11-24T09:31:02.565Z,1003.59
2022-11-24T09:32:06.795Z,1003.60
2022-11-24T09:33:02.457Z,1003.68
2022-11-24T09:34:02.421Z,1003.70
2022-11-24T09:35:02.393Z,1003.67
2022-11-24T09:36:02.381Z,1003.73
2022-11-24T09:37:02.365Z,1003.74
2022-11-24T09:38:02.405Z,1003.73
2022-11-24T09:39:02.344Z,1003.76
2022-11-24T09:40:03.249Z,1003.74
2022-11-24T09:41:02.310Z,1003.75
2022-11-24T09:42:02.304Z,1003.78
2022-11-24T09:43:02.296Z,1003.73
2022-11-24T09:44:02.384Z,1003.73
2022-11-24T09:45:02.262Z,1003.74
2022-11-24T09:46:05.792Z,1003.73
2022-11-24T09:47:02.366Z,1003.76
2022-11-24T09:48:02.272Z,1003.74
2022-11-24T09:49:02.210Z,1003.73
2022-11-24T09:50:02.241Z,1003.77
2022-11-24T09:51:02.233Z,1003.78
2022-11-24T09:52:02.177Z,1003.77
2022-11-24T09:53:02.170Z,1003.83
2022-11-24T09:54:02.152Z,1003.76
2022-11-24T09:55:02.395Z,1003.74
2022-11-24T09:56:02.189Z,1003.77
2022-11-24T09:57:02.095Z,1003.80
2022-11-24T09:58:02.095Z,1003.80
2022-11-24T09:59:02.144Z,1003.74
2022-11-24T10:00:02.127Z,1003.74
2022-11-24T10:01:02.134Z,1003.75
2022-11-24T10:02:02.260Z,1003.79
2022-11-24T10:03:02.027Z,1003.75
2022-11-24T10:04:06.279Z,1003.70
2022-11-24T10:05:02.140Z,1003.69
2022-11-24T10:06:01.988Z,1003.75
2022-11-24T10:07:03.145Z,1003.76
2022-11-24T10:08:01.972Z,1003.75
2022-11-24T10:09:02.359Z,1003.78
2022-11-24T10:10:02.069Z,1003.78
2022-11-24T10:11:01.977Z,1003.76
2022-11-24T10:12:01.912Z,1003.78
2022-11-24T10:13:01.906Z,1003.77
2022-11-24T10:14:01.888Z,1003.84
2022-11-24T10:15:01.978Z,1003.87
2022-11-24T10:16:01.971Z,1003.86
2022-11-24T10:17:01.857Z,1003.89
2022-11-24T10:18:01.882Z,1003.95
2022-11-24T10:19:01.830Z,1003.87
2022-11-24T10:20:01.899Z,1003.94
2022-11-24T10:21:02.833Z,1003.92
2022-11-24T10:22:01.808Z,1003.92
2022-11-24T10:23:01.792Z,1003.99
2022-11-24T10:24:02.158Z,1003.95
2022-11-24T10:25:01.879Z,1003.97
2022-11-24T10:26:01.735Z,1003.95
2022-11-24T10:27:01.764Z,1004.00
2022-11-24T10:28:01.751Z,1003.96
2022-11-24T10:29:01.749Z,1003.99
2022-11-24T10:30:01.849Z,1003.97
2022-11-24T10:31:01.776Z,1003.98
2022-11-24T10:32:02.798Z,1003.95
2022-11-24T10:33:02.704Z,1003.92
2022-11-24T10:34:01.627Z,1003.97
2022-11-24T10:35:01.809Z,1003.98
2022-11-24T10:36:01.626Z,1003.98
2022-11-24T10:37:02.839Z,1003.95
2022-11-24T10:38:01.576Z,1003.97
2022-11-24T10:39:01.582Z,1003.96
2022-11-24T10:40:01.562Z,1003.98
2022-11-24T10:41:01.620Z,1003.96
2022-11-24T10:42:01.553Z,1004.04
2022-11-24T10:43:01.518Z,1004.01
2022-11-24T10:44:01.524Z,1003.97
2022-11-24T10:45:01.492Z,1004.02
2022-11-24T10:46:01.558Z,1004.02
2022-11-24T10:47:01.474Z,1004.02
2022-11-24T10:48:01.553Z,1004.00
2022-11-24T10:49:01.474Z,1004.03
2022-11-24T10:50:01.453Z,1004.09
2022-11-24T10:51:01.419Z,1004.01
2022-11-24T10:52:01.570Z,1004.04
2022-11-24T10:53:01.439Z,1004.05
2022-11-24T10:54:01.369Z,1003.98
2022-11-24T10:55:01.369Z,1003.99
2022-11-24T10:56:01.339Z,1004.00
2022-11-24T10:57:01.345Z,1003.93
2022-11-24T10:58:01.335Z,1003.96
2022-11-24T10:59:01.287Z,1003.95
2022-11-24T11:00:01.338Z,1003.90
2022-11-24T11:01:01.374Z,1004.02
2022-11-24T11:02:01.412Z,1004.05
2022-11-24T11:03:01.304Z,1004.03
2022-11-24T11:04:01.258Z,1004.07
2022-11-24T11:05:01.291Z,1004.04
2022-11-24T11:06:01.318Z,1004.10
2022-11-24T11:07:01.191Z,1004.10
2022-11-24T11:08:05.455Z,1004.10
2022-11-24T11:09:01.242Z,1004.14
2022-11-24T11:10:01.182Z,1004.12
2022-11-24T11:11:01.181Z,1004.09
2022-11-24T11:12:10.027Z,1004.04
2022-11-24T11:13:02.152Z,1004.03
2022-11-24T11:14:04.308Z,1004.09
2022-11-24T11:15:02.258Z,1004.08
2022-11-24T11:16:01.079Z,1004.09
2022-11-24T11:17:01.179Z,1004.08
2022-11-24T11:18:01.230Z,1004.13
2022-11-24T11:19:01.053Z,1004.10
2022-11-24T11:20:02.531Z,1004.07
2022-11-24T11:21:01.043Z,1004.12
2022-11-24T11:22:01.006Z,1004.09
2022-11-24T11:23:00.980Z,1004.11
2022-11-24T11:24:00.978Z,1004.12
2022-11-24T11:25:01.013Z,1004.11
2022-11-24T11:26:00.963Z,1004.15
2022-11-24T11:27:00.950Z,1004.17
2022-11-24T11:28:04.192Z,1004.14
2022-11-24T11:31:19.728Z,1004.17
2022-11-24T11:34:04.597Z,1004.13
2022-11-24T11:35:00.818Z,1004.15
2022-11-24T11:36:00.877Z,1004.12
2022-11-24T11:37:00.805Z,1004.20
2022-11-24T11:38:01.588Z,1004.18
2022-11-24T11:39:00.839Z,1004.18
2022-11-24T11:40:00.783Z,1004.17
2022-11-24T11:41:00.788Z,1004.19
2022-11-24T11:42:00.729Z,1004.19
2022-11-24T11:43:02.747Z,1004.21
2022-11-24T11:44:00.726Z,1004.20
2022-11-24T11:45:00.682Z,1004.20
2022-11-24T11:46:00.901Z,1004.24
2022-11-24T11:47:00.852Z,1004.21
2022-11-24T11:48:00.647Z,1004.28
2022-11-24T11:49:02.098Z,1004.23
2022-11-24T11:50:00.763Z,1004.27
2022-11-24T11:51:22.400Z,1004.33
2022-11-24T11:52:01.613Z,1004.28
2022-11-24T11:53:00.618Z,1004.34
2022-11-24T11:54:00.663Z,1004.30
2022-11-24T11:55:00.569Z,1004.32
2022-11-24T11:56:00.576Z,1004.32
2022-11-24T11:57:00.571Z,1004.31
2022-11-24T11:58:00.538Z,1004.24
2022-11-24T11:59:00.523Z,1004.28
2022-11-24T12:00:00.488Z,1004.32
2022-11-24T12:01:00.483Z,1004.30
2022-11-24T12:02:00.517Z,1004.34
2022-11-24T12:03:00.576Z,1004.35
2022-11-24T12:04:00.619Z,1004.35
2022-11-24T12:05:00.498Z,1004.33
2022-11-24T12:06:00.413Z,1004.34
2022-11-24T12:07:00.430Z,1004.36
2022-11-24T12:08:04.911Z,1004.36
2022-11-24T12:09:19.852Z,1004.36
2022-11-24T12:10:01.362Z,1004.40
2022-11-24T12:11:00.354Z,1004.45
2022-11-24T12:12:00.328Z,1004.44
2022-11-24T12:13:00.324Z,1004.39
2022-11-24T12:14:00.373Z,1004.42
2022-11-24T12:15:01.759Z,1004.37
2022-11-24T12:16:00.479Z,1004.47
2022-11-24T12:17:00.263Z,1004.47